createdAt,value
2017-01-26T00:00:27.971Z,3.76
2017-01-26T00:01:27.960Z,3.76
2017-01-26T00:02:27.944Z,3.75
2017-01-26T00:03:27.936Z,3.7
2017-01-26T00:04:27.918Z,3.62
2017-01-26T00:05:27.907Z,3.65
2017-01-26T00:06:27.892Z,3.66
2017-01-26T00:07:27.878Z,3.62
2017-01-26T00:08:27.864Z,3.66
2017-01-26T00:09:27.857Z,3.68
2017-01-26T00:10:27.844Z,3.68
2017-01-26T00:11:27.826Z,3.73
2017-01-26T00:12:27.813Z,3.7
2017-01-26T00:13:27.806Z,3.69
2017-01-26T00:14:27.815Z,3.76
2017-01-26T00:15:27.778Z,3.69
2017-01-26T00:16:27.760Z,3.75
2017-01-26T00:17:27.748Z,3.66
2017-01-26T00:18:27.732Z,3.65
2017-01-26T00:19:27.719Z,3.57
2017-01-26T00:20:27.709Z,3.55
2017-01-26T00:21:27.693Z,3.58
2017-01-26T00:22:27.681Z,3.61
2017-01-26T00:23:27.671Z,3.66
2017-01-26T00:24:27.653Z,3.65
2017-01-26T00:25:28.028Z,3.69
2017-01-26T00:26:27.626Z,3.62
2017-01-26T00:27:27.615Z,3.61
2017-01-26T00:28:27.607Z,3.58
2017-01-26T00:29:27.589Z,3.58
2017-01-26T00:30:27.590Z,3.58
2017-01-26T00:31:27.558Z,3.54
2017-01-26T00:32:27.554Z,3.52
2017-01-26T00:33:27.532Z,3.52
2017-01-26T00:34:27.519Z,3.52
2017-01-26T00:35:27.509Z,3.4
2017-01-26T00:36:27.491Z,3.4
2017-01-26T00:37:27.482Z,3.47
2017-01-26T00:38:27.468Z,3.43
2017-01-26T00:39:27.451Z,3.36
2017-01-26T00:40:27.445Z,3.36
2017-01-26T00:41:27.426Z,3.39
2017-01-26T00:42:27.413Z,3.32
2017-01-26T00:43:27.399Z,3.39
2017-01-26T00:44:27.386Z,3.36
2017-01-26T00:45:27.369Z,3.33
2017-01-26T00:46:27.357Z,3.31
2017-01-26T00:47:27.342Z,3.32
2017-01-26T00:48:27.327Z,3.42
2017-01-26T00:49:27.315Z,3.4
2017-01-26T00:50:27.300Z,3.43
2017-01-26T00:51:27.287Z,3.4
2017-01-26T00:52:27.273Z,3.4
2017-01-26T00:53:27.261Z,3.42
2017-01-26T00:54:27.244Z,3.35
2017-01-26T00:55:27.240Z,3.5
2017-01-26T00:56:27.222Z,3.54
2017-01-26T00:57:27.215Z,3.55
2017-01-26T00:58:27.581Z,3.51
2017-01-26T00:59:27.178Z,3.55
2017-01-26T01:00:27.164Z,3.55
2017-01-26T01:01:27.151Z,3.65
2017-01-26T01:02:27.139Z,3.58
2017-01-26T01:03:27.125Z,3.62
2017-01-26T01:04:27.112Z,3.54
2017-01-26T01:05:27.096Z,3.57
2017-01-26T01:06:27.081Z,3.5
2017-01-26T01:07:27.089Z,3.52
2017-01-26T01:08:27.057Z,3.42
2017-01-26T01:09:27.041Z,3.55
2017-01-26T01:10:27.030Z,3.54
2017-01-26T01:11:27.016Z,3.5
2017-01-26T01:12:27.001Z,3.55
2017-01-26T01:13:27.374Z,3.47
2017-01-26T01:14:26.975Z,3.55
2017-01-26T01:15:26.962Z,3.45
2017-01-26T01:16:26.947Z,3.5
2017-01-26T01:17:26.932Z,3.36
2017-01-26T01:18:26.923Z,3.36
2017-01-26T01:19:26.915Z,3.36
2017-01-26T01:20:26.892Z,3.48
2017-01-26T01:21:26.888Z,3.47
2017-01-26T01:22:26.867Z,3.42
2017-01-26T01:23:26.851Z,3.52
2017-01-26T01:24:26.840Z,3.52
2017-01-26T01:25:26.825Z,3.52
2017-01-26T01:26:26.815Z,3.42
2017-01-26T01:27:26.799Z,3.42
2017-01-26T01:28:26.784Z,3.39
2017-01-26T01:29:26.772Z,3.4
2017-01-26T01:30:26.761Z,3.36
2017-01-26T01:31:26.745Z,3.36
2017-01-26T01:32:26.733Z,3.45
2017-01-26T01:33:26.723Z,3.42
2017-01-26T01:34:26.703Z,3.36
2017-01-26T01:35:26.688Z,3.43
2017-01-26T01:36:26.679Z,3.52
2017-01-26T01:37:26.664Z,3.54
2017-01-26T01:38:26.646Z,3.52
2017-01-26T01:39:26.637Z,3.43
2017-01-26T01:40:26.619Z,3.36
2017-01-26T01:41:26.607Z,3.33
2017-01-26T01:42:26.593Z,3.29
2017-01-26T01:43:26.582Z,3.35
2017-01-26T01:44:26.567Z,3.43
2017-01-26T01:45:26.550Z,3.29
2017-01-26T01:46:26.539Z,3.31
2017-01-26T01:47:26.562Z,3.31
2017-01-26T01:48:26.512Z,3.26
2017-01-26T01:49:26.503Z,3.39
2017-01-26T01:50:26.488Z,3.35
2017-01-26T01:51:26.475Z,3.39
2017-01-26T01:52:26.454Z,3.23
2017-01-26T01:53:26.445Z,3.33
2017-01-26T01:54:26.430Z,3.35
2017-01-26T01:55:26.417Z,3.29
2017-01-26T01:56:26.401Z,3.29
2017-01-26T01:57:26.392Z,3.28
2017-01-26T01:58:26.377Z,3.31
2017-01-26T01:59:26.360Z,3.31
2017-01-26T02:00:26.347Z,3.31
2017-01-26T02:01:26.332Z,3.28
2017-01-26T02:02:26.320Z,3.29
2017-01-26T02:03:26.305Z,3.31
2017-01-26T02:04:26.292Z,3.31
2017-01-26T02:05:26.279Z,3.33
2017-01-26T02:06:26.267Z,3.33
2017-01-26T02:07:26.251Z,3.31
2017-01-26T02:08:26.236Z,3.47
2017-01-26T02:09:26.227Z,3.32
2017-01-26T02:10:26.210Z,3.29
2017-01-26T02:11:26.199Z,3.32
2017-01-26T02:12:26.183Z,3.31
2017-01-26T02:13:26.169Z,3.26
2017-01-26T02:14:26.156Z,3.28
2017-01-26T02:15:26.144Z,3.36
2017-01-26T02:16:26.129Z,3.26
2017-01-26T02:17:26.115Z,3.23
2017-01-26T02:18:26.104Z,3.26
2017-01-26T02:19:26.089Z,3.26
2017-01-26T02:20:26.072Z,3.23
2017-01-26T02:21:26.061Z,3.15
2017-01-26T02:22:26.047Z,3.23
2017-01-26T02:23:26.033Z,3.1
2017-01-26T02:24:26.019Z,3.11
2017-01-26T02:25:26.007Z,3.18
2017-01-26T02:26:26.006Z,3.2
2017-01-26T02:27:25.996Z,3.2
2017-01-26T02:28:25.972Z,3.06
2017-01-26T02:29:25.948Z,3.2
2017-01-26T02:30:25.939Z,3.24
2017-01-26T02:31:25.921Z,3.29
2017-01-26T02:32:25.911Z,3.24
2017-01-26T02:33:25.894Z,3.24
2017-01-26T02:34:25.881Z,3.18
2017-01-26T02:35:25.871Z,3.23
2017-01-26T02:36:25.852Z,3.28
2017-01-26T02:37:25.840Z,3.24
2017-01-26T02:38:25.826Z,3.29
2017-01-26T02:39:25.814Z,3.29
2017-01-26T02:40:25.796Z,3.26
2017-01-26T02:41:25.790Z,3.31
2017-01-26T02:42:26.164Z,3.29
2017-01-26T02:43:25.759Z,3.26
2017-01-26T02:44:25.743Z,3.29
2017-01-26T02:45:25.734Z,3.28
2017-01-26T02:46:25.715Z,3.29
2017-01-26T02:47:25.706Z,3.29
2017-01-26T02:48:25.688Z,3.26
2017-01-26T02:49:25.673Z,3.24
2017-01-26T02:50:25.665Z,3.26
2017-01-26T02:51:25.647Z,3.31
2017-01-26T02:52:25.636Z,3.29
2017-01-26T02:53:25.622Z,3.32
2017-01-26T02:54:25.606Z,3.21
2017-01-26T02:55:25.980Z,3.32
2017-01-26T02:56:25.581Z,3.32
2017-01-26T02:57:25.576Z,3.21
2017-01-26T02:58:25.555Z,3.29
2017-01-26T02:59:25.543Z,3.31
2017-01-26T03:00:25.533Z,3.31
2017-01-26T03:01:25.511Z,3.31
2017-01-26T03:02:25.524Z,3.36
2017-01-26T03:03:25.480Z,3.36
2017-01-26T03:04:25.472Z,3.36
2017-01-26T03:05:25.456Z,3.33
2017-01-26T03:06:25.442Z,3.36
2017-01-26T03:07:25.433Z,3.52
2017-01-26T03:08:25.805Z,3.43
2017-01-26T03:09:25.402Z,3.48
2017-01-26T03:10:25.386Z,3.35
2017-01-26T03:11:25.377Z,3.36
2017-01-26T03:12:25.359Z,3.36
2017-01-26T03:13:25.354Z,3.32
2017-01-26T03:14:25.359Z,3.36
2017-01-26T03:15:25.322Z,3.39
2017-01-26T03:16:25.308Z,3.29
2017-01-26T03:17:25.291Z,3.24
2017-01-26T03:18:25.281Z,3.26
2017-01-26T03:19:25.264Z,3.28
2017-01-26T03:20:25.248Z,3.33
2017-01-26T03:21:25.237Z,3.24
2017-01-26T03:22:25.221Z,3.28
2017-01-26T03:23:25.213Z,3.33
2017-01-26T03:24:25.206Z,3.26
2017-01-26T03:25:25.181Z,3.2
2017-01-26T03:26:25.171Z,3.28
2017-01-26T03:27:25.157Z,3.2
2017-01-26T03:28:25.144Z,3.28
2017-01-26T03:29:25.129Z,3.29
2017-01-26T03:30:25.115Z,3.23
2017-01-26T03:31:25.100Z,3.31
2017-01-26T03:32:25.086Z,3.21
2017-01-26T03:33:25.100Z,3.23
2017-01-26T03:34:25.058Z,3.23
2017-01-26T03:35:25.043Z,3.24
2017-01-26T03:36:25.423Z,3.23
2017-01-26T03:37:25.021Z,3.21
2017-01-26T03:38:25.007Z,3.23
2017-01-26T03:39:24.991Z,3.2
2017-01-26T03:40:24.982Z,3.24
2017-01-26T03:41:24.963Z,3.23
2017-01-26T03:42:24.953Z,3.26
2017-01-26T03:43:24.936Z,3.24
2017-01-26T03:44:24.921Z,3.32
2017-01-26T03:45:24.910Z,3.35
2017-01-26T03:46:24.895Z,3.23
2017-01-26T03:47:24.883Z,3.21
2017-01-26T03:48:24.905Z,3.2
2017-01-26T03:49:24.853Z,3.24
2017-01-26T03:50:24.840Z,3.31
2017-01-26T03:51:24.825Z,3.28
2017-01-26T03:52:24.817Z,3.29
2017-01-26T03:53:24.796Z,3.29
2017-01-26T03:54:24.785Z,3.29
2017-01-26T03:55:24.770Z,3.31
2017-01-26T03:56:24.756Z,3.2
2017-01-26T03:57:24.743Z,3.36
2017-01-26T03:58:24.735Z,3.24
2017-01-26T03:59:24.719Z,3.21
2017-01-26T04:00:24.701Z,3.23
2017-01-26T04:01:24.685Z,3.26
2017-01-26T04:02:24.678Z,3.35
2017-01-26T04:03:24.659Z,3.23
2017-01-26T04:04:24.650Z,3.28
2017-01-26T04:05:24.632Z,3.29
2017-01-26T04:06:24.619Z,3.21
2017-01-26T04:07:24.602Z,3.26
2017-01-26T04:08:24.591Z,3.26
2017-01-26T04:09:24.577Z,3.24
2017-01-26T04:10:24.565Z,3.2
2017-01-26T04:11:24.551Z,3.29
2017-01-26T04:12:24.534Z,3.24
2017-01-26T04:13:24.532Z,3.32
2017-01-26T04:14:24.509Z,3.31
2017-01-26T04:15:24.494Z,3.29
2017-01-26T04:16:24.482Z,3.32
2017-01-26T04:17:24.467Z,3.24
2017-01-26T04:18:24.453Z,3.26
2017-01-26T04:19:24.442Z,3.24
2017-01-26T04:20:24.426Z,3.29
2017-01-26T04:21:24.410Z,3.21
2017-01-26T04:22:24.424Z,3.21
2017-01-26T04:23:24.383Z,3.21
2017-01-26T04:24:24.369Z,3.24
2017-01-26T04:25:24.358Z,3.23
2017-01-26T04:26:24.344Z,3.17
2017-01-26T04:27:24.332Z,3.18
2017-01-26T04:28:24.312Z,3.21
2017-01-26T04:29:24.302Z,3.23
2017-01-26T04:30:24.285Z,3.11
2017-01-26T04:31:24.273Z,3.1
2017-01-26T04:32:24.259Z,3.2
2017-01-26T04:33:24.244Z,3.11
2017-01-26T04:34:24.234Z,3.17
2017-01-26T04:35:24.244Z,3.13
2017-01-26T04:36:24.211Z,3.13
2017-01-26T04:37:24.189Z,3.03
2017-01-26T04:38:24.176Z,3.13
2017-01-26T04:39:24.160Z,3.08
2017-01-26T04:40:24.149Z,3.03
2017-01-26T04:41:24.134Z,3.03
2017-01-26T04:42:24.121Z,3.1
2017-01-26T04:43:24.104Z,3.03
2017-01-26T04:44:24.090Z,2.97
2017-01-26T04:45:24.077Z,2.9
2017-01-26T04:46:24.062Z,2.99
2017-01-26T04:47:24.052Z,3.03
2017-01-26T04:48:24.042Z,2.93
2017-01-26T04:49:24.023Z,2.92
2017-01-26T04:50:24.007Z,2.97
2017-01-26T04:51:23.995Z,2.87
2017-01-26T04:52:23.982Z,2.96
2017-01-26T04:53:23.978Z,2.87
2017-01-26T04:54:23.951Z,2.82
2017-01-26T04:55:23.938Z,2.93
2017-01-26T04:56:23.928Z,2.95
2017-01-26T04:57:23.909Z,2.9
2017-01-26T04:58:23.898Z,2.87
2017-01-26T04:59:23.883Z,2.81
2017-01-26T05:00:23.868Z,2.85
2017-01-26T05:01:23.856Z,2.95
2017-01-26T05:02:23.843Z,2.95
2017-01-26T05:03:23.829Z,2.96
2017-01-26T05:04:23.814Z,2.97
2017-01-26T05:05:23.825Z,3
2017-01-26T05:06:23.788Z,3
2017-01-26T05:07:23.770Z,2.92
2017-01-26T05:08:23.763Z,2.92
2017-01-26T05:09:23.744Z,3.11
2017-01-26T05:10:23.760Z,3.03
2017-01-26T05:11:23.716Z,3.03
2017-01-26T05:12:23.731Z,3.08
2017-01-26T05:13:23.687Z,3.05
2017-01-26T05:14:23.674Z,3.06
2017-01-26T05:15:23.659Z,3.08
2017-01-26T05:16:23.650Z,3.1
2017-01-26T05:17:23.660Z,3.15
2017-01-26T05:18:23.617Z,3.08
2017-01-26T05:19:23.640Z,3.1
2017-01-26T05:20:23.592Z,3.1
2017-01-26T05:21:23.576Z,3.11
2017-01-26T05:22:23.563Z,3.08
2017-01-26T05:23:23.551Z,3.05
2017-01-26T05:24:23.536Z,3.08
2017-01-26T05:25:23.907Z,3.03
2017-01-26T05:26:23.508Z,3.03
2017-01-26T05:27:23.494Z,3.03
2017-01-26T05:28:23.487Z,3.03
2017-01-26T05:29:23.466Z,3.05
2017-01-26T05:30:23.448Z,3.06
2017-01-26T05:31:23.683Z,2.95
2017-01-26T05:32:23.423Z,3.1
2017-01-26T05:33:23.828Z,2.99
2017-01-26T05:34:23.395Z,3.02
2017-01-26T05:35:23.382Z,2.92
2017-01-26T05:36:23.369Z,2.93
2017-01-26T05:37:23.354Z,2.96
2017-01-26T05:38:23.341Z,2.81
2017-01-26T05:39:23.325Z,2.89
2017-01-26T05:40:23.311Z,2.97
2017-01-26T05:41:23.298Z,2.84
2017-01-26T05:42:23.287Z,2.81
2017-01-26T05:43:23.270Z,2.84
2017-01-26T05:44:23.257Z,2.9
2017-01-26T05:45:23.241Z,2.81
2017-01-26T05:46:23.226Z,2.77
2017-01-26T05:47:23.214Z,2.82
2017-01-26T05:48:23.201Z,2.82
2017-01-26T05:49:23.187Z,2.84
2017-01-26T05:50:23.171Z,2.82
2017-01-26T05:51:23.158Z,2.84
2017-01-26T05:52:23.145Z,2.9
2017-01-26T05:53:23.129Z,2.9
2017-01-26T05:54:23.114Z,2.87
2017-01-26T05:55:23.103Z,2.71
2017-01-26T05:56:23.088Z,2.82
2017-01-26T05:57:23.106Z,2.69
2017-01-26T05:58:23.056Z,2.82
2017-01-26T05:59:23.046Z,2.69
2017-01-26T06:00:23.028Z,2.81
2017-01-26T06:01:23.034Z,2.77
2017-01-26T06:02:23.003Z,2.82
2017-01-26T06:03:22.986Z,2.85
2017-01-26T06:04:22.971Z,2.84
2017-01-26T06:05:22.961Z,2.87
2017-01-26T06:06:22.948Z,2.84
2017-01-26T06:07:22.939Z,2.95
2017-01-26T06:08:22.917Z,2.84
2017-01-26T06:09:22.903Z,2.78
2017-01-26T06:10:22.889Z,2.82
2017-01-26T06:11:22.877Z,2.9
2017-01-26T06:12:22.863Z,2.96
2017-01-26T06:13:22.847Z,2.95
2017-01-26T06:14:22.862Z,2.93
2017-01-26T06:15:22.819Z,2.93
2017-01-26T06:16:22.808Z,2.95
2017-01-26T06:17:22.819Z,2.87
2017-01-26T06:18:22.779Z,2.87
2017-01-26T06:19:22.765Z,2.99
2017-01-26T06:20:22.748Z,2.97
2017-01-26T06:21:22.735Z,2.92
2017-01-26T06:22:22.721Z,3.02
2017-01-26T06:23:22.711Z,2.9
2017-01-26T06:24:22.693Z,2.97
2017-01-26T06:25:22.685Z,3.1
2017-01-26T06:26:22.686Z,3.06
2017-01-26T06:27:22.672Z,3.05
2017-01-26T06:28:22.642Z,3
2017-01-26T06:29:22.627Z,3.03
2017-01-26T06:30:22.609Z,3.05
2017-01-26T06:31:22.596Z,3.05
2017-01-26T06:32:22.583Z,2.97
2017-01-26T06:33:22.569Z,2.93
2017-01-26T06:34:22.552Z,2.9
2017-01-26T06:35:22.545Z,2.84
2017-01-26T06:36:22.524Z,2.82
2017-01-26T06:37:22.542Z,2.9
2017-01-26T06:38:22.499Z,2.9
2017-01-26T06:39:22.484Z,2.85
2017-01-26T06:40:22.471Z,2.87
2017-01-26T06:41:22.842Z,2.97
2017-01-26T06:42:22.444Z,2.85
2017-01-26T06:43:22.429Z,2.87
2017-01-26T06:44:22.432Z,2.82
2017-01-26T06:45:22.402Z,2.85
2017-01-26T06:46:22.387Z,2.85
2017-01-26T06:47:22.373Z,2.84
2017-01-26T06:48:22.357Z,2.82
2017-01-26T06:49:22.351Z,2.85
2017-01-26T06:50:22.335Z,2.75
2017-01-26T06:51:22.316Z,2.82
2017-01-26T06:52:22.301Z,2.84
2017-01-26T06:53:22.291Z,2.82
2017-01-26T06:54:22.277Z,2.84
2017-01-26T06:55:22.655Z,2.75
2017-01-26T06:56:22.243Z,2.84
2017-01-26T06:57:22.233Z,2.84
2017-01-26T06:58:22.218Z,2.87
2017-01-26T06:59:22.208Z,2.77
2017-01-26T07:00:24.195Z,2.79
2017-01-26T07:01:22.178Z,2.75
2017-01-26T07:02:22.162Z,2.81
2017-01-26T07:03:22.147Z,2.85
2017-01-26T07:04:22.135Z,2.89
2017-01-26T07:05:22.120Z,2.77
2017-01-26T07:06:22.103Z,2.85
2017-01-26T07:07:22.092Z,2.85
2017-01-26T07:08:22.077Z,2.89
2017-01-26T07:09:22.063Z,2.87
2017-01-26T07:10:22.049Z,2.95
2017-01-26T07:11:22.033Z,2.87
2017-01-26T07:12:22.023Z,2.87
2017-01-26T07:13:22.005Z,2.87
2017-01-26T07:14:21.993Z,2.78
2017-01-26T07:15:21.980Z,2.75
2017-01-26T07:16:21.970Z,2.81
2017-01-26T07:17:21.956Z,2.81
2017-01-26T07:18:21.935Z,2.85
2017-01-26T07:19:21.924Z,2.84
2017-01-26T07:20:21.911Z,2.77
2017-01-26T07:21:21.896Z,2.84
2017-01-26T07:22:21.882Z,2.89
2017-01-26T07:23:21.871Z,2.79
2017-01-26T07:24:21.855Z,2.82
2017-01-26T07:25:21.839Z,2.96
2017-01-26T07:26:21.826Z,2.92
2017-01-26T07:27:21.810Z,2.87
2017-01-26T07:28:22.184Z,2.77
2017-01-26T07:29:21.782Z,2.9
2017-01-26T07:30:21.772Z,2.87
2017-01-26T07:31:21.755Z,2.85
2017-01-26T07:32:21.740Z,2.87
2017-01-26T07:33:22.114Z,2.89
2017-01-26T07:34:21.714Z,2.78
2017-01-26T07:35:21.701Z,2.87
2017-01-26T07:36:21.687Z,2.87
2017-01-26T07:37:21.671Z,2.84
2017-01-26T07:38:21.657Z,2.87
2017-01-26T07:39:21.644Z,2.82
2017-01-26T07:40:21.628Z,2.84
2017-01-26T07:41:22.001Z,2.84
2017-01-26T07:42:21.601Z,2.84
2017-01-26T07:43:21.591Z,2.81
2017-01-26T07:44:21.959Z,2.89
2017-01-26T07:45:21.565Z,2.92
2017-01-26T07:46:21.936Z,2.87
2017-01-26T07:47:21.535Z,2.78
2017-01-26T07:48:21.518Z,2.89
2017-01-26T07:49:21.506Z,2.82
2017-01-26T07:50:21.499Z,2.74
2017-01-26T07:51:21.481Z,2.74
2017-01-26T07:52:21.470Z,2.79
2017-01-26T07:53:21.450Z,2.81
2017-01-26T07:54:21.434Z,2.82
2017-01-26T07:55:21.424Z,2.84
2017-01-26T07:56:21.410Z,2.85
2017-01-26T07:57:21.401Z,2.78
2017-01-26T07:58:21.767Z,2.78
2017-01-26T07:59:21.370Z,2.79
2017-01-26T08:00:21.353Z,2.78
2017-01-26T08:01:21.343Z,2.81
2017-01-26T08:02:21.327Z,2.81
2017-01-26T08:03:21.313Z,2.85
2017-01-26T08:04:21.296Z,2.95
2017-01-26T08:05:21.288Z,3.02
2017-01-26T08:06:21.624Z,3.02
2017-01-26T08:07:21.257Z,3.06
2017-01-26T08:08:21.245Z,3.08
2017-01-26T08:09:21.229Z,3.13
2017-01-26T08:10:21.242Z,3.06
2017-01-26T08:11:21.202Z,3.17
2017-01-26T08:12:21.191Z,3.21
2017-01-26T08:13:21.177Z,3.24
2017-01-26T08:14:21.170Z,3.35
2017-01-26T08:15:21.150Z,3.28
2017-01-26T08:16:21.135Z,3.31
2017-01-26T08:17:21.122Z,3.26
2017-01-26T08:18:21.116Z,3.39
2017-01-26T08:19:21.096Z,3.48
2017-01-26T08:20:21.085Z,3.52
2017-01-26T08:21:21.070Z,3.51
2017-01-26T08:22:21.055Z,3.5
2017-01-26T08:23:21.046Z,3.6
2017-01-26T08:24:21.415Z,3.69
2017-01-26T08:25:21.015Z,3.62
2017-01-26T08:26:21.002Z,3.66
2017-01-26T08:27:20.987Z,3.66
2017-01-26T08:28:20.973Z,3.66
2017-01-26T08:29:20.962Z,3.7
2017-01-26T08:30:20.954Z,3.69
2017-01-26T08:31:20.934Z,3.76
2017-01-26T08:32:20.930Z,3.73
2017-01-26T08:33:20.908Z,3.66
2017-01-26T08:34:21.289Z,3.75
2017-01-26T08:35:20.884Z,3.75
2017-01-26T08:36:20.869Z,3.7
2017-01-26T08:37:20.859Z,3.7
2017-01-26T08:38:20.845Z,3.68
2017-01-26T08:39:20.830Z,3.69
2017-01-26T08:40:20.818Z,3.72
2017-01-26T08:41:20.809Z,3.78
2017-01-26T08:42:21.043Z,3.76
2017-01-26T08:43:20.782Z,3.94
2017-01-26T08:44:20.770Z,3.94
2017-01-26T08:45:20.757Z,3.9
2017-01-26T08:46:20.745Z,4.02
2017-01-26T08:47:20.730Z,3.91
2017-01-26T08:48:20.714Z,3.93
2017-01-26T08:49:20.701Z,3.94
2017-01-26T08:50:20.693Z,3.87
2017-01-26T08:51:20.677Z,3.87
2017-01-26T08:52:20.663Z,3.88
2017-01-26T08:53:20.650Z,3.87
2017-01-26T08:54:20.638Z,3.94
2017-01-26T08:55:20.626Z,4
2017-01-26T08:56:20.612Z,3.97
2017-01-26T08:57:20.604Z,4.05
2017-01-26T08:58:20.593Z,4.15
2017-01-26T08:59:20.576Z,4.18
2017-01-26T09:00:20.562Z,4.29
2017-01-26T09:01:20.550Z,4.29
2017-01-26T09:02:20.535Z,4.44
2017-01-26T09:03:20.525Z,4.37
2017-01-26T09:04:20.898Z,4.51
2017-01-26T09:05:20.498Z,4.48
2017-01-26T09:06:20.488Z,4.45
2017-01-26T09:07:20.477Z,4.44
2017-01-26T09:08:20.459Z,4.51
2017-01-26T09:09:20.457Z,4.51
2017-01-26T09:10:20.438Z,4.55
2017-01-26T09:11:20.422Z,4.5
2017-01-26T09:12:20.418Z,4.5
2017-01-26T09:13:20.404Z,4.58
2017-01-26T09:14:20.388Z,4.48
2017-01-26T09:15:20.376Z,4.37
2017-01-26T09:16:20.365Z,4.44
2017-01-26T09:17:20.353Z,4.4
2017-01-26T09:18:20.341Z,4.36
2017-01-26T09:19:20.344Z,4.47
2017-01-26T09:20:20.315Z,4.41
2017-01-26T09:21:20.305Z,4.44
2017-01-26T09:22:20.291Z,4.4
2017-01-26T09:23:20.282Z,4.41
2017-01-26T09:24:20.271Z,4.36
2017-01-26T09:25:20.258Z,4.36
2017-01-26T09:26:20.244Z,4.42
2017-01-26T09:27:20.586Z,4.36
2017-01-26T09:28:20.220Z,4.34
2017-01-26T09:29:20.232Z,4.24
2017-01-26T09:30:20.199Z,4.24
2017-01-26T09:31:20.185Z,4.23
2017-01-26T09:32:20.173Z,4.15
2017-01-26T09:33:20.544Z,4.16
2017-01-26T09:34:20.148Z,4.06
2017-01-26T09:35:20.141Z,4.12
2017-01-26T09:36:20.123Z,4.14
2017-01-26T09:37:20.112Z,4.05
2017-01-26T09:38:20.097Z,4.08
2017-01-26T09:39:20.087Z,4.06
2017-01-26T09:40:20.072Z,4
2017-01-26T09:41:20.061Z,4.08
2017-01-26T09:42:20.048Z,4.11
2017-01-26T09:43:20.046Z,4.04
2017-01-26T09:44:20.027Z,4.06
2017-01-26T09:45:20.012Z,4
2017-01-26T09:46:20.001Z,4.08
2017-01-26T09:47:19.988Z,4.15
2017-01-26T09:48:19.975Z,4.11
2017-01-26T09:49:19.962Z,4.11
2017-01-26T09:50:19.948Z,4.08
2017-01-26T09:51:19.938Z,4.05
2017-01-26T09:52:19.928Z,4.15
2017-01-26T09:53:19.911Z,4.09
2017-01-26T09:54:19.903Z,4.09
2017-01-26T09:55:19.887Z,4.11
2017-01-26T09:56:19.875Z,4.12
2017-01-26T09:57:19.861Z,4.12
2017-01-26T09:58:19.850Z,4.11
2017-01-26T09:59:19.837Z,4.09
2017-01-26T10:00:19.828Z,3.98
2017-01-26T10:01:19.811Z,4.09
2017-01-26T10:02:19.803Z,4.05
2017-01-26T10:03:19.785Z,4.06
2017-01-26T10:04:19.777Z,4.12
2017-01-26T10:05:19.764Z,4.11
2017-01-26T10:06:19.751Z,4.09
2017-01-26T10:07:19.737Z,4.14
2017-01-26T10:08:19.724Z,4.05
2017-01-26T10:09:19.709Z,4.05
2017-01-26T10:10:19.699Z,4.05
2017-01-26T10:11:19.688Z,4.05
2017-01-26T10:12:19.878Z,4.12
2017-01-26T10:13:19.672Z,4.14
2017-01-26T10:14:19.652Z,4.23
2017-01-26T10:15:19.636Z,4.18
2017-01-26T10:16:19.622Z,4.16
2017-01-26T10:17:19.613Z,4.09
2017-01-26T10:18:19.600Z,4.11
2017-01-26T10:19:19.588Z,4.12
2017-01-26T10:20:19.574Z,4.14
2017-01-26T10:21:19.560Z,4.09
2017-01-26T10:22:19.548Z,4.14
2017-01-26T10:23:19.545Z,4.15
2017-01-26T10:24:19.549Z,4.12
2017-01-26T10:25:19.898Z,4.14
2017-01-26T10:26:19.501Z,4.12
2017-01-26T10:27:19.493Z,4.12
2017-01-26T10:28:19.473Z,4.18
2017-01-26T10:29:19.460Z,4.14
2017-01-26T10:30:19.453Z,4.24
2017-01-26T10:31:19.435Z,4.26
2017-01-26T10:32:19.426Z,4.33
2017-01-26T10:33:19.412Z,4.29
2017-01-26T10:34:19.400Z,4.44
2017-01-26T10:35:19.390Z,4.47
2017-01-26T10:36:19.382Z,4.47
2017-01-26T10:37:19.364Z,4.5
2017-01-26T10:38:19.702Z,4.55
2017-01-26T10:39:19.339Z,4.51
2017-01-26T10:40:19.328Z,4.52
2017-01-26T10:41:19.311Z,4.65
2017-01-26T10:42:19.301Z,4.66
2017-01-26T10:43:19.304Z,4.73
2017-01-26T10:44:19.277Z,4.8
2017-01-26T10:45:19.265Z,4.91
2017-01-26T10:46:19.250Z,4.91
2017-01-26T10:47:19.238Z,5.09
2017-01-26T10:48:19.615Z,5.03
2017-01-26T10:49:19.215Z,5.2
2017-01-26T10:50:19.204Z,5.21
2017-01-26T10:51:19.192Z,5.13
2017-01-26T10:52:19.226Z,5.09
2017-01-26T10:53:19.168Z,5.09
2017-01-26T10:54:19.154Z,5.22
2017-01-26T10:55:19.143Z,5.17
2017-01-26T10:56:19.130Z,5.28
2017-01-26T10:57:19.142Z,5.18
2017-01-26T10:58:19.105Z,5.09
2017-01-26T10:59:19.095Z,5.13
2017-01-26T11:00:19.082Z,5.02
2017-01-26T11:01:19.072Z,5.09
2017-01-26T11:02:19.057Z,5.02
2017-01-26T11:03:19.047Z,4.99
2017-01-26T11:04:19.034Z,4.97
2017-01-26T11:05:19.022Z,4.97
2017-01-26T11:06:19.012Z,5.12
2017-01-26T11:07:19.004Z,5.2
2017-01-26T11:08:18.987Z,5.15
2017-01-26T11:09:18.987Z,5.21
2017-01-26T11:10:18.966Z,5.21
2017-01-26T11:11:18.956Z,5.31
2017-01-26T11:12:18.942Z,5.45
2017-01-26T11:13:18.927Z,5.57
2017-01-26T11:14:18.919Z,5.67
2017-01-26T11:15:18.906Z,5.72
2017-01-26T11:16:18.893Z,5.9
2017-01-26T11:17:18.883Z,5.94
2017-01-26T11:18:18.870Z,5.99
2017-01-26T11:19:18.860Z,6.06
2017-01-26T11:20:18.848Z,6.15
2017-01-26T11:21:18.838Z,6.18
2017-01-26T11:22:18.827Z,6.22
2017-01-26T11:23:18.817Z,6.31
2017-01-26T11:24:18.803Z,6.34
2017-01-26T11:25:18.795Z,6.41
2017-01-26T11:26:18.804Z,6.51
2017-01-26T11:27:18.774Z,6.51
2017-01-26T11:28:18.761Z,6.56
2017-01-26T11:29:18.768Z,6.67
2017-01-26T11:30:18.737Z,6.77
2017-01-26T11:31:18.725Z,6.87
2017-01-26T11:32:18.719Z,6.91
2017-01-26T11:33:18.730Z,6.84
2017-01-26T11:34:18.697Z,6.8
2017-01-26T11:35:18.686Z,6.76
2017-01-26T11:36:18.676Z,6.66
2017-01-26T11:37:18.663Z,6.71
2017-01-26T11:38:50.510Z,6.54
2017-01-26T11:39:27.501Z,6.55
2017-01-26T11:40:18.634Z,6.52
2017-01-26T11:41:18.622Z,6.58
2017-01-26T11:42:19.001Z,6.49
2017-01-26T11:43:18.606Z,6.54
2017-01-26T11:44:19.278Z,6.54
2017-01-26T11:45:18.579Z,6.44
2017-01-26T11:46:18.574Z,6.34
2017-01-26T11:47:18.557Z,6.38
2017-01-26T11:48:18.548Z,6.4
2017-01-26T11:49:18.539Z,6.41
2017-01-26T11:50:18.526Z,6.46
2017-01-26T11:51:18.519Z,6.49
2017-01-26T11:52:18.504Z,6.46
2017-01-26T11:53:18.496Z,6.4
2017-01-26T11:54:18.486Z,6.38
2017-01-26T11:55:18.474Z,6.38
2017-01-26T11:56:18.463Z,6.22
2017-01-26T11:57:18.457Z,6.3
2017-01-26T11:58:18.444Z,6.33
2017-01-26T11:59:18.440Z,6.28
2017-01-26T12:00:18.427Z,6.15
2017-01-26T12:01:18.415Z,6.09
2017-01-26T12:02:18.403Z,6.01
2017-01-26T12:03:18.389Z,5.97
2017-01-26T12:04:18.414Z,5.97
2017-01-26T12:05:18.370Z,5.96
2017-01-26T12:06:18.360Z,5.93
2017-01-26T12:07:18.378Z,6.06
2017-01-26T12:08:18.334Z,5.97
2017-01-26T12:09:18.328Z,6.06
2017-01-26T12:10:18.312Z,6.06
2017-01-26T12:11:18.304Z,6.01
2017-01-26T12:12:18.311Z,6.08
2017-01-26T12:13:18.285Z,6.03
2017-01-26T12:14:18.271Z,6.04
2017-01-26T12:15:18.258Z,6.06
2017-01-26T12:16:18.248Z,5.94
2017-01-26T12:17:18.237Z,5.97
2017-01-26T12:18:18.228Z,5.89
2017-01-26T12:19:18.216Z,5.93
2017-01-26T12:20:18.228Z,5.9
2017-01-26T12:21:18.196Z,5.96
2017-01-26T12:22:18.180Z,5.86
2017-01-26T12:23:18.172Z,5.81
2017-01-26T12:24:18.160Z,5.91
2017-01-26T12:25:18.148Z,5.85
2017-01-26T12:26:18.138Z,5.76
2017-01-26T12:27:18.126Z,5.76
2017-01-26T12:28:18.119Z,5.83
2017-01-26T12:29:18.104Z,5.96
2017-01-26T12:30:18.479Z,5.99
2017-01-26T12:31:18.472Z,5.94
2017-01-26T12:32:18.076Z,5.97
2017-01-26T12:33:18.065Z,5.94
2017-01-26T12:34:18.437Z,5.94
2017-01-26T12:35:18.054Z,5.89
2017-01-26T12:36:18.030Z,5.9
2017-01-26T12:37:18.401Z,5.85
2017-01-26T12:38:18.010Z,5.9
2017-01-26T12:39:18.001Z,5.83
2017-01-26T12:40:17.981Z,5.83
2017-01-26T12:41:17.972Z,5.91
2017-01-26T12:42:17.961Z,5.86
2017-01-26T12:43:17.952Z,5.89
2017-01-26T12:44:17.938Z,5.81
2017-01-26T12:45:17.928Z,5.9
2017-01-26T12:46:17.918Z,5.86
2017-01-26T12:47:17.908Z,5.91
2017-01-26T12:48:17.893Z,5.97
2017-01-26T12:49:17.899Z,6.03
2017-01-26T12:50:18.172Z,6.03
2017-01-26T12:51:17.864Z,6.08
2017-01-26T12:52:17.854Z,6
2017-01-26T12:53:17.840Z,5.85
2017-01-26T12:54:17.829Z,5.91
2017-01-26T12:55:17.816Z,5.79
2017-01-26T12:56:17.824Z,5.74
2017-01-26T12:57:17.801Z,5.68
2017-01-26T12:58:17.787Z,5.67
2017-01-26T12:59:17.772Z,5.63
2017-01-26T13:00:18.112Z,5.61
2017-01-26T13:01:17.751Z,5.57
2017-01-26T13:02:17.738Z,5.51
2017-01-26T13:03:17.732Z,5.53
2017-01-26T13:04:17.719Z,5.53
2017-01-26T13:05:17.703Z,5.63
2017-01-26T13:06:17.695Z,5.57
2017-01-26T13:07:17.681Z,5.45
2017-01-26T13:08:17.670Z,5.46
2017-01-26T13:09:17.663Z,5.46
2017-01-26T13:10:17.649Z,5.57
2017-01-26T13:11:17.635Z,5.45
2017-01-26T13:12:17.626Z,5.49
2017-01-26T13:13:17.614Z,5.58
2017-01-26T13:14:17.599Z,5.49
2017-01-26T13:15:17.596Z,5.57
2017-01-26T13:16:17.577Z,5.56
2017-01-26T13:17:17.571Z,5.58
2017-01-26T13:18:17.558Z,5.64
2017-01-26T13:19:17.544Z,5.57
2017-01-26T13:20:17.531Z,5.56
2017-01-26T13:21:17.524Z,5.57